sensor_id;sensor_type;location;lat;lon;timestamp;P1;durP1;ratioP1;P2;durP2;ratioP2
33987;SDS011;37428;53.580;-1.666;2023-04-03T00:03:01;12.25;;;6.35;;
33987;SDS011;37428;53.580;-1.666;2023-04-03T00:06:03;7.10;;;5.38;;
33987;SDS011;37428;53.580;-1.666;2023-04-03T00:09:06;13.40;;;5.53;;
33987;SDS011;37428;53.580;-1.666;2023-04-03T00:12:10;13.52;;;5.28;;
33987;SDS011;37428;53.580;-1.666;2023-04-03T00:15:12;11.52;;;5.13;;
33987;SDS011;37428;53.580;-1.666;2023-04-03T00:18:14;11.65;;;5.22;;
33987;SDS011;37428;53.580;-1.666;2023-04-03T00:21:16;10.40;;;4.88;;
33987;SDS011;37428;53.580;-1.666;2023-04-03T00:24:18;13.73;;;5.72;;
33987;SDS011;37428;53.580;-1.666;2023-04-03T00:27:22;9.25;;;4.78;;
33987;SDS011;37428;53.580;-1.666;2023-04-03T00:30:24;7.57;;;4.45;;
33987;SDS011;37428;53.580;-1.666;2023-04-03T00:33:26;8.40;;;4.18;;
33987;SDS011;37428;53.580;-1.666;2023-04-03T00:36:29;10.70;;;4.53;;
33987;SDS011;37428;53.580;-1.666;2023-04-03T00:39:31;12.68;;;4.15;;
33987;SDS011;37428;53.580;-1.666;2023-04-03T00:42:35;9.95;;;4.18;;
33987;SDS011;37428;53.580;-1.666;2023-04-03T00:45:38;9.10;;;4.75;;
33987;SDS011;37428;53.580;-1.666;2023-04-03T00:48:42;8.20;;;3.35;;
33987;SDS011;37428;53.580;-1.666;2023-04-03T00:51:46;13.48;;;4.00;;
33987;SDS011;37428;53.580;-1.666;2023-04-03T00:54:48;7.72;;;3.88;;
33987;SDS011;37428;53.580;-1.666;2023-04-03T00:57:55;11.88;;;4.18;;
33987;SDS011;37428;53.580;-1.666;2023-04-03T01:00:57;10.32;;;3.83;;
33987;SDS011;37428;53.580;-1.666;2023-04-03T01:04:01;10.15;;;4.68;;
33987;SDS011;37428;53.580;-1.666;2023-04-03T01:07:04;8.43;;;4.63;;
33987;SDS011;37428;53.580;-1.666;2023-04-03T01:10:10;13.80;;;3.72;;
33987;SDS011;37428;53.580;-1.666;2023-04-03T01:13:21;7.72;;;4.07;;
33987;SDS011;37428;53.580;-1.666;2023-04-03T01:16:25;12.50;;;4.80;;
33987;SDS011;37428;53.580;-1.666;2023-04-03T01:19:30;6.72;;;4.75;;
33987;SDS011;37428;53.580;-1.666;2023-04-03T01:22:33;10.95;;;4.60;;
33987;SDS011;37428;53.580;-1.666;2023-04-03T01:25:41;10.23;;;4.43;;
33987;SDS011;37428;53.580;-1.666;2023-04-03T01:28:46;10.38;;;4.68;;
33987;SDS011;37428;53.580;-1.666;2023-04-03T01:31:51;9.00;;;4.65;;
33987;SDS011;37428;53.580;-1.666;2023-04-03T01:34:54;8.50;;;5.25;;
33987;SDS011;37428;53.580;-1.666;2023-04-03T01:37:56;9.68;;;4.97;;
33987;SDS011;37428;53.580;-1.666;2023-04-03T01:40:58;7.53;;;4.60;;
33987;SDS011;37428;53.580;-1.666;2023-04-03T01:44:01;8.52;;;4.07;;
33987;SDS011;37428;53.580;-1.666;2023-04-03T01:47:06;11.73;;;5.30;;
33987;SDS011;37428;53.580;-1.666;2023-04-03T01:50:09;9.25;;;4.18;;
33987;SDS011;37428;53.580;-1.666;2023-04-03T01:53:11;6.93;;;4.15;;
33987;SDS011;37428;53.580;-1.666;2023-04-03T01:59:15;9.88;;;4.82;;
33987;SDS011;37428;53.580;-1.666;2023-04-03T02:02:20;10.25;;;5.30;;
33987;SDS011;37428;53.580;-1.666;2023-04-03T02:05:22;7.00;;;4.55;;
33987;SDS011;37428;53.580;-1.666;2023-04-03T02:08:25;11.85;;;5.40;;
33987;SDS011;37428;53.580;-1.666;2023-04-03T02:11:27;6.63;;;5.07;;
33987;SDS011;37428;53.580;-1.666;2023-04-03T02:14:29;9.90;;;4.93;;
33987;SDS011;37428;53.580;-1.666;2023-04-03T02:17:32;8.60;;;5.25;;
33987;SDS011;37428;53.580;-1.666;2023-04-03T02:20:35;10.80;;;5.30;;
33987;SDS011;37428;53.580;-1.666;2023-04-03T02:23:38;8.85;;;5.72;;
33987;SDS011;37428;53.580;-1.666;2023-04-03T02:26:40;5.10;;;4.60;;
33987;SDS011;37428;53.580;-1.666;2023-04-03T02:29:42;7.65;;;5.03;;
33987;SDS011;37428;53.580;-1.666;2023-04-03T02:32:45;7.95;;;4.70;;
33987;SDS011;37428;53.580;-1.666;2023-04-03T02:35:51;8.40;;;5.03;;
33987;SDS011;37428;53.580;-1.666;2023-04-03T02:38:54;8.05;;;4.70;;
33987;SDS011;37428;53.580;-1.666;2023-04-03T02:41:56;11.63;;;5.00;;
33987;SDS011;37428;53.580;-1.666;2023-04-03T02:44:58;13.98;;;4.50;;
33987;SDS011;37428;53.580;-1.666;2023-04-03T02:48:03;12.52;;;4.88;;
33987;SDS011;37428;53.580;-1.666;2023-04-03T02:51:05;7.68;;;4.70;;
33987;SDS011;37428;53.580;-1.666;2023-04-03T02:54:07;10.85;;;4.82;;
33987;SDS011;37428;53.580;-1.666;2023-04-03T02:57:09;6.50;;;3.88;;
33987;SDS011;37428;53.580;-1.666;2023-04-03T03:00:12;8.13;;;5.28;;
33987;SDS011;37428;53.580;-1.666;2023-04-03T03:03:16;8.13;;;3.60;;
33987;SDS011;37428;53.580;-1.666;2023-04-03T03:06:18;4.95;;;3.30;;
33987;SDS011;37428;53.580;-1.666;2023-04-03T03:09:20;7.68;;;4.65;;
33987;SDS011;37428;53.580;-1.666;2023-04-03T03:12:22;8.55;;;4.10;;
33987;SDS011;37428;53.580;-1.666;2023-04-03T03:15:24;6.47;;;3.53;;
33987;SDS011;37428;53.580;-1.666;2023-04-03T03:18:28;9.57;;;4.28;;
33987;SDS011;37428;53.580;-1.666;2023-04-03T03:21:30;12.05;;;3.40;;
33987;SDS011;37428;53.580;-1.666;2023-04-03T03:24:32;8.38;;;3.50;;
33987;SDS011;37428;53.580;-1.666;2023-04-03T03:27:35;6.72;;;3.38;;
33987;SDS011;37428;53.580;-1.666;2023-04-03T03:30:37;4.25;;;2.78;;
33987;SDS011;37428;53.580;-1.666;2023-04-03T03:33:40;8.27;;;3.20;;
33987;SDS011;37428;53.580;-1.666;2023-04-03T03:36:43;5.28;;;3.20;;
33987;SDS011;37428;53.580;-1.666;2023-04-03T03:39:45;5.45;;;3.13;;
33987;SDS011;37428;53.580;-1.666;2023-04-03T03:42:47;10.43;;;4.00;;
33987;SDS011;37428;53.580;-1.666;2023-04-03T03:45:49;6.38;;;3.42;;
33987;SDS011;37428;53.580;-1.666;2023-04-03T03:48:53;7.82;;;3.17;;
33987;SDS011;37428;53.580;-1.666;2023-04-03T03:51:56;9.98;;;3.70;;
33987;SDS011;37428;53.580;-1.666;2023-04-03T03:54:58;8.93;;;3.05;;
33987;SDS011;37428;53.580;-1.666;2023-04-03T03:58:00;6.82;;;3.10;;
33987;SDS011;37428;53.580;-1.666;2023-04-03T04:01:04;7.43;;;3.03;;
33987;SDS011;37428;53.580;-1.666;2023-04-03T04:04:08;5.15;;;3.33;;
33987;SDS011;37428;53.580;-1.666;2023-04-03T04:07:10;9.00;;;3.40;;
33987;SDS011;37428;53.580;-1.666;2023-04-03T04:10:12;5.97;;;3.05;;
33987;SDS011;37428;53.580;-1.666;2023-04-03T04:13:14;5.50;;;4.07;;
33987;SDS011;37428;53.580;-1.666;2023-04-03T04:16:16;5.38;;;2.95;;
33987;SDS011;37428;53.580;-1.666;2023-04-03T04:19:19;7.88;;;2.70;;
33987;SDS011;37428;53.580;-1.666;2023-04-03T04:22:22;6.60;;;3.17;;
33987;SDS011;37428;53.580;-1.666;2023-04-03T04:25:24;10.43;;;3.13;;
33987;SDS011;37428;53.580;-1.666;2023-04-03T04:28:26;6.30;;;3.85;;
33987;SDS011;37428;53.580;-1.666;2023-04-03T04:31:28;4.55;;;3.25;;
33987;SDS011;37428;53.580;-1.666;2023-04-03T04:34:31;9.05;;;3.50;;
33987;SDS011;37428;53.580;-1.666;2023-04-03T04:37:33;8.80;;;5.43;;
33987;SDS011;37428;53.580;-1.666;2023-04-03T04:40:35;7.72;;;3.67;;
33987;SDS011;37428;53.580;-1.666;2023-04-03T04:43:37;9.07;;;4.35;;
33987;SDS011;37428;53.580;-1.666;2023-04-03T04:46:40;5.63;;;4.20;;
33987;SDS011;37428;53.580;-1.666;2023-04-03T04:49:43;7.32;;;4.18;;
33987;SDS011;37428;53.580;-1.666;2023-04-03T04:52:47;7.60;;;4.00;;
33987;SDS011;37428;53.580;-1.666;2023-04-03T04:55:49;10.35;;;4.05;;
33987;SDS011;37428;53.580;-1.666;2023-04-03T04:58:52;6.47;;;4.03;;
33987;SDS011;37428;53.580;-1.666;2023-04-03T05:01:54;6.53;;;3.65;;
33987;SDS011;37428;53.580;-1.666;2023-04-03T05:04:57;10.27;;;4.70;;
33987;SDS011;37428;53.580;-1.666;2023-04-03T05:08:00;9.93;;;4.88;;
33987;SDS011;37428;53.580;-1.666;2023-04-03T05:11:02;11.52;;;5.65;;
33987;SDS011;37428;53.580;-1.666;2023-04-03T05:14:04;11.70;;;5.22;;
33987;SDS011;37428;53.580;-1.666;2023-04-03T05:17:06;12.60;;;5.75;;
33987;SDS011;37428;53.580;-1.666;2023-04-03T05:20:10;10.27;;;4.82;;
33987;SDS011;37428;53.580;-1.666;2023-04-03T05:23:13;7.05;;;4.88;;
33987;SDS011;37428;53.580;-1.666;2023-04-03T05:26:15;8.02;;;4.88;;
33987;SDS011;37428;53.580;-1.666;2023-04-03T05:29:17;8.23;;;5.78;;
33987;SDS011;37428;53.580;-1.666;2023-04-03T05:32:19;10.10;;;5.45;;
33987;SDS011;37428;53.580;-1.666;2023-04-03T05:35:22;9.77;;;5.55;;
33987;SDS011;37428;53.580;-1.666;2023-04-03T05:38:25;6.93;;;5.68;;
33987;SDS011;37428;53.580;-1.666;2023-04-03T05:41:28;10.60;;;5.60;;
33987;SDS011;37428;53.580;-1.666;2023-04-03T05:44:31;12.52;;;5.22;;
33987;SDS011;37428;53.580;-1.666;2023-04-03T05:47:33;9.63;;;5.75;;
33987;SDS011;37428;53.580;-1.666;2023-04-03T05:50:36;13.30;;;6.22;;
33987;SDS011;37428;53.580;-1.666;2023-04-03T05:53:41;9.63;;;6.35;;
33987;SDS011;37428;53.580;-1.666;2023-04-03T05:56:45;11.48;;;6.10;;
33987;SDS011;37428;53.580;-1.666;2023-04-03T05:59:47;10.93;;;5.88;;
33987;SDS011;37428;53.580;-1.666;2023-04-03T06:02:50;12.43;;;6.38;;
33987;SDS011;37428;53.580;-1.666;2023-04-03T06:05:54;13.27;;;6.32;;
33987;SDS011;37428;53.580;-1.666;2023-04-03T06:08:56;11.52;;;6.00;;
33987;SDS011;37428;53.580;-1.666;2023-04-03T06:11:58;10.52;;;6.05;;
33987;SDS011;37428;53.580;-1.666;2023-04-03T06:15:00;10.65;;;7.75;;
33987;SDS011;37428;53.580;-1.666;2023-04-03T06:18:03;8.95;;;6.20;;
33987;SDS011;37428;53.580;-1.666;2023-04-03T06:21:07;13.43;;;6.60;;
33987;SDS011;37428;53.580;-1.666;2023-04-03T06:24:09;9.15;;;6.20;;
33987;SDS011;37428;53.580;-1.666;2023-04-03T06:27:13;11.07;;;6.13;;
33987;SDS011;37428;53.580;-1.666;2023-04-03T06:30:17;13.50;;;6.63;;
33987;SDS011;37428;53.580;-1.666;2023-04-03T06:33:19;13.23;;;5.53;;
33987;SDS011;37428;53.580;-1.666;2023-04-03T06:36:22;15.75;;;6.40;;
33987;SDS011;37428;53.580;-1.666;2023-04-03T06:39:24;11.52;;;5.18;;
33987;SDS011;37428;53.580;-1.666;2023-04-03T06:42:27;8.13;;;4.85;;
33987;SDS011;37428;53.580;-1.666;2023-04-03T06:45:29;7.28;;;4.45;;
33987;SDS011;37428;53.580;-1.666;2023-04-03T06:48:31;8.80;;;3.78;;
33987;SDS011;37428;53.580;-1.666;2023-04-03T06:51:35;13.23;;;4.82;;
33987;SDS011;37428;53.580;-1.666;2023-04-03T06:54:37;12.70;;;4.05;;
33987;SDS011;37428;53.580;-1.666;2023-04-03T06:57:40;7.65;;;3.63;;
33987;SDS011;37428;53.580;-1.666;2023-04-03T07:00:42;9.35;;;4.13;;
33987;SDS011;37428;53.580;-1.666;2023-04-03T07:06:49;8.23;;;4.10;;
33987;SDS011;37428;53.580;-1.666;2023-04-03T07:09:52;8.70;;;4.72;;
33987;SDS011;37428;53.580;-1.666;2023-04-03T07:12:55;9.30;;;5.60;;
33987;SDS011;37428;53.580;-1.666;2023-04-03T07:18:59;8.10;;;4.57;;
33987;SDS011;37428;53.580;-1.666;2023-04-03T07:22:04;6.97;;;4.40;;
33987;SDS011;37428;53.580;-1.666;2023-04-03T07:25:07;7.85;;;5.07;;
33987;SDS011;37428;53.580;-1.666;2023-04-03T07:31:11;10.68;;;4.95;;
33987;SDS011;37428;53.580;-1.666;2023-04-03T07:34:15;14.05;;;5.63;;
33987;SDS011;37428;53.580;-1.666;2023-04-03T07:37:18;11.98;;;7.35;;
33987;SDS011;37428;53.580;-1.666;2023-04-03T07:40:20;19.00;;;7.53;;
33987;SDS011;37428;53.580;-1.666;2023-04-03T07:43:22;7.40;;;5.00;;
33987;SDS011;37428;53.580;-1.666;2023-04-03T07:46:26;16.17;;;7.32;;
33987;SDS011;37428;53.580;-1.666;2023-04-03T07:49:28;15.05;;;6.45;;
33987;SDS011;37428;53.580;-1.666;2023-04-03T07:52:31;9.32;;;6.45;;
33987;SDS011;37428;53.580;-1.666;2023-04-03T07:55:33;8.93;;;5.60;;
33987;SDS011;37428;53.580;-1.666;2023-04-03T07:58:42;14.05;;;6.80;;
33987;SDS011;37428;53.580;-1.666;2023-04-03T08:01:45;13.85;;;11.40;;
33987;SDS011;37428;53.580;-1.666;2023-04-03T08:04:47;12.30;;;5.47;;
33987;SDS011;37428;53.580;-1.666;2023-04-03T08:07:51;13.15;;;5.65;;
33987;SDS011;37428;53.580;-1.666;2023-04-03T08:10:53;15.45;;;5.50;;
33987;SDS011;37428;53.580;-1.666;2023-04-03T08:16:57;7.25;;;4.78;;
33987;SDS011;37428;53.580;-1.666;2023-04-03T08:19:59;10.68;;;4.03;;
33987;SDS011;37428;53.580;-1.666;2023-04-03T08:23:03;11.57;;;3.38;;
33987;SDS011;37428;53.580;-1.666;2023-04-03T08:26:06;11.85;;;4.63;;
33987;SDS011;37428;53.580;-1.666;2023-04-03T08:29:09;7.93;;;3.80;;
33987;SDS011;37428;53.580;-1.666;2023-04-03T08:32:14;6.88;;;3.63;;
33987;SDS011;37428;53.580;-1.666;2023-04-03T08:35:16;6.20;;;3.15;;
33987;SDS011;37428;53.580;-1.666;2023-04-03T08:38:21;8.13;;;3.63;;
33987;SDS011;37428;53.580;-1.666;2023-04-03T08:41:26;6.72;;;4.10;;
33987;SDS011;37428;53.580;-1.666;2023-04-03T08:44:36;6.82;;;3.58;;
33987;SDS011;37428;53.580;-1.666;2023-04-03T08:47:46;6.68;;;4.10;;
33987;SDS011;37428;53.580;-1.666;2023-04-03T08:50:55;8.48;;;4.10;;
33987;SDS011;37428;53.580;-1.666;2023-04-03T08:54:01;8.75;;;3.40;;
33987;SDS011;37428;53.580;-1.666;2023-04-03T08:57:09;13.60;;;4.47;;
33987;SDS011;37428;53.580;-1.666;2023-04-03T09:00:16;7.80;;;3.95;;
33987;SDS011;37428;53.580;-1.666;2023-04-03T09:03:20;6.35;;;2.85;;
33987;SDS011;37428;53.580;-1.666;2023-04-03T09:06:23;8.60;;;3.03;;
33987;SDS011;37428;53.580;-1.666;2023-04-03T09:09:32;8.23;;;2.63;;
33987;SDS011;37428;53.580;-1.666;2023-04-03T09:12:41;11.35;;;2.03;;
33987;SDS011;37428;53.580;-1.666;2023-04-03T09:15:46;14.02;;;3.35;;
33987;SDS011;37428;53.580;-1.666;2023-04-03T09:18:50;8.43;;;2.67;;
33987;SDS011;37428;53.580;-1.666;2023-04-03T09:21:57;12.45;;;2.08;;
33987;SDS011;37428;53.580;-1.666;2023-04-03T09:25:02;5.00;;;2.00;;
33987;SDS011;37428;53.580;-1.666;2023-04-03T09:28:09;8.70;;;2.95;;
33987;SDS011;37428;53.580;-1.666;2023-04-03T09:31:16;11.40;;;3.30;;
33987;SDS011;37428;53.580;-1.666;2023-04-03T09:34:22;5.25;;;2.28;;
33987;SDS011;37428;53.580;-1.666;2023-04-03T09:37:34;9.95;;;2.60;;
33987;SDS011;37428;53.580;-1.666;2023-04-03T09:40:40;11.07;;;1.58;;
33987;SDS011;37428;53.580;-1.666;2023-04-03T09:43:51;8.63;;;2.42;;
33987;SDS011;37428;53.580;-1.666;2023-04-03T09:46:54;4.97;;;2.10;;
33987;SDS011;37428;53.580;-1.666;2023-04-03T09:50:15;7.93;;;2.60;;
33987;SDS011;37428;53.580;-1.666;2023-04-03T09:53:25;8.65;;;3.30;;
33987;SDS011;37428;53.580;-1.666;2023-04-03T09:56:31;4.88;;;3.17;;
33987;SDS011;37428;53.580;-1.666;2023-04-03T09:59:34;6.65;;;3.28;;
33987;SDS011;37428;53.580;-1.666;2023-04-03T10:02:38;7.68;;;1.80;;
33987;SDS011;37428;53.580;-1.666;2023-04-03T10:05:41;9.13;;;3.35;;
33987;SDS011;37428;53.580;-1.666;2023-04-03T10:12:02;7.05;;;2.08;;
33987;SDS011;37428;53.580;-1.666;2023-04-03T10:15:11;5.90;;;3.47;;
33987;SDS011;37428;53.580;-1.666;2023-04-03T10:18:19;5.00;;;1.63;;
33987;SDS011;37428;53.580;-1.666;2023-04-03T10:21:33;4.97;;;2.30;;
33987;SDS011;37428;53.580;-1.666;2023-04-03T10:24:44;3.53;;;1.75;;
33987;SDS011;37428;53.580;-1.666;2023-04-03T10:27:55;5.47;;;1.63;;
33987;SDS011;37428;53.580;-1.666;2023-04-03T10:31:03;6.88;;;1.88;;
33987;SDS011;37428;53.580;-1.666;2023-04-03T10:34:13;4.55;;;1.70;;
33987;SDS011;37428;53.580;-1.666;2023-04-03T10:37:24;5.07;;;1.67;;
33987;SDS011;37428;53.580;-1.666;2023-04-03T10:40:29;4.38;;;1.33;;
33987;SDS011;37428;53.580;-1.666;2023-04-03T10:43:39;7.32;;;1.70;;
33987;SDS011;37428;53.580;-1.666;2023-04-03T10:46:46;3.78;;;1.30;;
33987;SDS011;37428;53.580;-1.666;2023-04-03T10:49:53;5.03;;;1.33;;
33987;SDS011;37428;53.580;-1.666;2023-04-03T10:53:03;5.57;;;1.83;;
33987;SDS011;37428;53.580;-1.666;2023-04-03T10:56:10;4.03;;;1.30;;
33987;SDS011;37428;53.580;-1.666;2023-04-03T10:59:21;4.38;;;1.20;;
33987;SDS011;37428;53.580;-1.666;2023-04-03T11:02:28;9.18;;;2.03;;
33987;SDS011;37428;53.580;-1.666;2023-04-03T11:05:34;5.18;;;1.42;;
33987;SDS011;37428;53.580;-1.666;2023-04-03T11:08:43;12.02;;;2.75;;
33987;SDS011;37428;53.580;-1.666;2023-04-03T11:11:51;5.75;;;1.88;;
33987;SDS011;37428;53.580;-1.666;2023-04-03T11:14:59;2.25;;;1.40;;
33987;SDS011;37428;53.580;-1.666;2023-04-03T11:18:06;4.10;;;1.70;;
33987;SDS011;37428;53.580;-1.666;2023-04-03T11:21:12;2.50;;;1.38;;
33987;SDS011;37428;53.580;-1.666;2023-04-03T11:24:20;5.93;;;1.40;;
33987;SDS011;37428;53.580;-1.666;2023-04-03T11:27:25;6.70;;;2.10;;
33987;SDS011;37428;53.580;-1.666;2023-04-03T11:30:37;5.75;;;1.90;;
33987;SDS011;37428;53.580;-1.666;2023-04-03T11:33:48;3.03;;;2.00;;
33987;SDS011;37428;53.580;-1.666;2023-04-03T11:37:00;4.38;;;1.52;;
33987;SDS011;37428;53.580;-1.666;2023-04-03T11:40:07;6.25;;;2.30;;
33987;SDS011;37428;53.580;-1.666;2023-04-03T11:43:24;5.47;;;1.83;;
33987;SDS011;37428;53.580;-1.666;2023-04-03T11:49:58;6.75;;;1.58;;
33987;SDS011;37428;53.580;-1.666;2023-04-03T11:53:02;8.02;;;1.77;;
33987;SDS011;37428;53.580;-1.666;2023-04-03T11:56:28;4.63;;;1.88;;
33987;SDS011;37428;53.580;-1.666;2023-04-03T11:59:36;5.97;;;1.50;;
33987;SDS011;37428;53.580;-1.666;2023-04-03T12:02:40;8.60;;;1.85;;
33987;SDS011;37428;53.580;-1.666;2023-04-03T12:05:42;5.45;;;1.80;;
33987;SDS011;37428;53.580;-1.666;2023-04-03T12:08:45;6.85;;;1.80;;
33987;SDS011;37428;53.580;-1.666;2023-04-03T12:11:49;8.75;;;2.08;;
33987;SDS011;37428;53.580;-1.666;2023-04-03T12:14:52;3.22;;;1.20;;
33987;SDS011;37428;53.580;-1.666;2023-04-03T12:17:56;10.50;;;2.10;;
33987;SDS011;37428;53.580;-1.666;2023-04-03T12:20:58;5.97;;;1.75;;
33987;SDS011;37428;53.580;-1.666;2023-04-03T12:24:02;4.40;;;1.60;;
33987;SDS011;37428;53.580;-1.666;2023-04-03T12:27:13;6.13;;;1.50;;
33987;SDS011;37428;53.580;-1.666;2023-04-03T12:30:25;7.68;;;1.58;;
33987;SDS011;37428;53.580;-1.666;2023-04-03T12:33:32;8.60;;;1.65;;
33987;SDS011;37428;53.580;-1.666;2023-04-03T12:36:46;5.45;;;1.38;;
33987;SDS011;37428;53.580;-1.666;2023-04-03T12:40:00;3.83;;;1.20;;
33987;SDS011;37428;53.580;-1.666;2023-04-03T12:43:17;7.97;;;2.70;;
33987;SDS011;37428;53.580;-1.666;2023-04-03T12:46:34;4.72;;;1.55;;
33987;SDS011;37428;53.580;-1.666;2023-04-03T12:49:42;9.85;;;3.65;;
33987;SDS011;37428;53.580;-1.666;2023-04-03T12:52:45;23.70;;;12.13;;
33987;SDS011;37428;53.580;-1.666;2023-04-03T12:55:53;26.23;;;14.60;;
33987;SDS011;37428;53.580;-1.666;2023-04-03T12:59:12;14.02;;;4.20;;
33987;SDS011;37428;53.580;-1.666;2023-04-03T13:02:25;18.02;;;8.15;;
33987;SDS011;37428;53.580;-1.666;2023-04-03T13:05:31;3.72;;;1.08;;
33987;SDS011;37428;53.580;-1.666;2023-04-03T13:08:34;4.03;;;1.65;;
33987;SDS011;37428;53.580;-1.666;2023-04-03T13:11:37;9.68;;;1.98;;
33987;SDS011;37428;53.580;-1.666;2023-04-03T13:14:51;10.77;;;2.80;;
33987;SDS011;37428;53.580;-1.666;2023-04-03T13:17:54;11.77;;;1.90;;
33987;SDS011;37428;53.580;-1.666;2023-04-03T13:21:00;13.65;;;5.95;;
33987;SDS011;37428;53.580;-1.666;2023-04-03T13:24:05;14.80;;;7.53;;
33987;SDS011;37428;53.580;-1.666;2023-04-03T13:27:09;9.60;;;4.13;;
33987;SDS011;37428;53.580;-1.666;2023-04-03T13:30:24;3.90;;;1.70;;
33987;SDS011;37428;53.580;-1.666;2023-04-03T13:33:29;6.22;;;1.73;;
33987;SDS011;37428;53.580;-1.666;2023-04-03T13:36:35;6.75;;;1.98;;
33987;SDS011;37428;53.580;-1.666;2023-04-03T13:39:39;5.18;;;1.73;;
33987;SDS011;37428;53.580;-1.666;2023-04-03T13:45:53;4.53;;;1.65;;
33987;SDS011;37428;53.580;-1.666;2023-04-03T13:49:01;4.40;;;1.70;;
33987;SDS011;37428;53.580;-1.666;2023-04-03T13:52:26;12.73;;;2.95;;
33987;SDS011;37428;53.580;-1.666;2023-04-03T13:55:31;3.35;;;1.52;;
33987;SDS011;37428;53.580;-1.666;2023-04-03T13:58:34;6.78;;;1.80;;
33987;SDS011;37428;53.580;-1.666;2023-04-03T14:01:43;5.72;;;2.22;;
33987;SDS011;37428;53.580;-1.666;2023-04-03T14:04:52;5.32;;;1.90;;
33987;SDS011;37428;53.580;-1.666;2023-04-03T14:07:59;5.78;;;1.73;;
33987;SDS011;37428;53.580;-1.666;2023-04-03T14:11:02;6.55;;;1.85;;
33987;SDS011;37428;53.580;-1.666;2023-04-03T14:14:06;9.30;;;2.08;;
33987;SDS011;37428;53.580;-1.666;2023-04-03T14:17:14;4.00;;;2.08;;
33987;SDS011;37428;53.580;-1.666;2023-04-03T14:20:19;7.90;;;2.15;;
33987;SDS011;37428;53.580;-1.666;2023-04-03T14:23:24;6.32;;;2.00;;
33987;SDS011;37428;53.580;-1.666;2023-04-03T14:26:27;3.28;;;1.58;;
33987;SDS011;37428;53.580;-1.666;2023-04-03T14:29:30;4.43;;;1.92;;
33987;SDS011;37428;53.580;-1.666;2023-04-03T14:32:32;9.20;;;2.13;;
33987;SDS011;37428;53.580;-1.666;2023-04-03T14:35:35;5.53;;;1.83;;
33987;SDS011;37428;53.580;-1.666;2023-04-03T14:38:39;10.10;;;2.38;;
33987;SDS011;37428;53.580;-1.666;2023-04-03T14:41:42;3.90;;;2.10;;
33987;SDS011;37428;53.580;-1.666;2023-04-03T14:44:44;5.55;;;1.95;;
33987;SDS011;37428;53.580;-1.666;2023-04-03T14:47:47;8.15;;;1.92;;
33987;SDS011;37428;53.580;-1.666;2023-04-03T14:50:51;5.30;;;1.98;;
33987;SDS011;37428;53.580;-1.666;2023-04-03T14:53:56;5.85;;;2.10;;
33987;SDS011;37428;53.580;-1.666;2023-04-03T14:56:59;9.15;;;2.22;;
33987;SDS011;37428;53.580;-1.666;2023-04-03T15:00:03;8.02;;;2.75;;
33987;SDS011;37428;53.580;-1.666;2023-04-03T15:03:05;4.95;;;1.98;;
33987;SDS011;37428;53.580;-1.666;2023-04-03T15:06:11;6.97;;;2.28;;
33987;SDS011;37428;53.580;-1.666;2023-04-03T15:09:20;4.20;;;1.60;;
33987;SDS011;37428;53.580;-1.666;2023-04-03T15:12:24;6.15;;;2.08;;
33987;SDS011;37428;53.580;-1.666;2023-04-03T15:18:31;6.45;;;2.45;;
33987;SDS011;37428;53.580;-1.666;2023-04-03T15:21:37;4.22;;;2.20;;
33987;SDS011;37428;53.580;-1.666;2023-04-03T15:24:40;9.18;;;2.47;;
33987;SDS011;37428;53.580;-1.666;2023-04-03T15:27:43;9.35;;;2.50;;
33987;SDS011;37428;53.580;-1.666;2023-04-03T15:30:45;7.50;;;1.55;;
33987;SDS011;37428;53.580;-1.666;2023-04-03T15:33:47;6.35;;;2.30;;
33987;SDS011;37428;53.580;-1.666;2023-04-03T15:36:49;5.97;;;2.30;;
33987;SDS011;37428;53.580;-1.666;2023-04-03T15:39:54;5.72;;;1.88;;
33987;SDS011;37428;53.580;-1.666;2023-04-03T15:42:56;14.10;;;2.45;;
33987;SDS011;37428;53.580;-1.666;2023-04-03T15:45:58;11.05;;;1.63;;
33987;SDS011;37428;53.580;-1.666;2023-04-03T15:49:00;5.93;;;2.50;;
33987;SDS011;37428;53.580;-1.666;2023-04-03T15:52:03;4.50;;;1.80;;
33987;SDS011;37428;53.580;-1.666;2023-04-03T15:55:07;7.60;;;2.22;;
33987;SDS011;37428;53.580;-1.666;2023-04-03T15:58:09;8.80;;;2.40;;
33987;SDS011;37428;53.580;-1.666;2023-04-03T16:01:12;5.95;;;2.00;;
33987;SDS011;37428;53.580;-1.666;2023-04-03T16:04:14;7.20;;;2.33;;
33987;SDS011;37428;53.580;-1.666;2023-04-03T16:10:20;7.90;;;2.13;;
33987;SDS011;37428;53.580;-1.666;2023-04-03T16:13:22;5.97;;;2.30;;
33987;SDS011;37428;53.580;-1.666;2023-04-03T16:16:25;4.53;;;1.80;;
33987;SDS011;37428;53.580;-1.666;2023-04-03T16:19:27;5.85;;;1.70;;
33987;SDS011;37428;53.580;-1.666;2023-04-03T16:22:30;5.80;;;2.15;;
33987;SDS011;37428;53.580;-1.666;2023-04-03T16:25:35;2.85;;;1.77;;
33987;SDS011;37428;53.580;-1.666;2023-04-03T16:28:37;5.88;;;2.15;;
33987;SDS011;37428;53.580;-1.666;2023-04-03T16:31:39;4.78;;;2.10;;
33987;SDS011;37428;53.580;-1.666;2023-04-03T16:34:41;10.45;;;2.75;;
33987;SDS011;37428;53.580;-1.666;2023-04-03T16:37:43;8.30;;;2.63;;
33987;SDS011;37428;53.580;-1.666;2023-04-03T16:40:47;8.85;;;2.45;;
33987;SDS011;37428;53.580;-1.666;2023-04-03T16:43:50;7.15;;;2.90;;
33987;SDS011;37428;53.580;-1.666;2023-04-03T16:46:52;6.53;;;2.58;;
33987;SDS011;37428;53.580;-1.666;2023-04-03T16:49:54;3.78;;;2.70;;
33987;SDS011;37428;53.580;-1.666;2023-04-03T16:52:56;5.90;;;2.55;;
33987;SDS011;37428;53.580;-1.666;2023-04-03T16:55:59;4.78;;;2.28;;
33987;SDS011;37428;53.580;-1.666;2023-04-03T16:59:01;7.78;;;2.30;;
33987;SDS011;37428;53.580;-1.666;2023-04-03T17:02:03;5.05;;;2.53;;
33987;SDS011;37428;53.580;-1.666;2023-04-03T17:05:06;6.60;;;2.25;;
33987;SDS011;37428;53.580;-1.666;2023-04-03T17:08:12;6.82;;;2.03;;
33987;SDS011;37428;53.580;-1.666;2023-04-03T17:11:16;5.00;;;2.45;;
33987;SDS011;37428;53.580;-1.666;2023-04-03T17:14:19;6.57;;;2.25;;
33987;SDS011;37428;53.580;-1.666;2023-04-03T17:17:21;5.00;;;2.67;;
33987;SDS011;37428;53.580;-1.666;2023-04-03T17:20:26;9.70;;;3.05;;
33987;SDS011;37428;53.580;-1.666;2023-04-03T17:23:28;4.32;;;2.08;;
33987;SDS011;37428;53.580;-1.666;2023-04-03T17:29:34;7.72;;;2.40;;
33987;SDS011;37428;53.580;-1.666;2023-04-03T17:32:36;6.32;;;2.30;;
33987;SDS011;37428;53.580;-1.666;2023-04-03T17:35:38;5.10;;;2.83;;
33987;SDS011;37428;53.580;-1.666;2023-04-03T17:38:40;4.85;;;2.45;;
33987;SDS011;37428;53.580;-1.666;2023-04-03T17:41:44;3.72;;;2.45;;
33987;SDS011;37428;53.580;-1.666;2023-04-03T17:44:48;5.70;;;2.65;;
33987;SDS011;37428;53.580;-1.666;2023-04-03T17:47:50;6.65;;;3.08;;
33987;SDS011;37428;53.580;-1.666;2023-04-03T17:50:52;5.47;;;2.30;;
33987;SDS011;37428;53.580;-1.666;2023-04-03T17:53:54;4.93;;;3.45;;
33987;SDS011;37428;53.580;-1.666;2023-04-03T17:56:58;5.95;;;2.83;;
33987;SDS011;37428;53.580;-1.666;2023-04-03T18:00:02;4.80;;;2.75;;
33987;SDS011;37428;53.580;-1.666;2023-04-03T18:03:06;8.68;;;4.95;;
33987;SDS011;37428;53.580;-1.666;2023-04-03T18:06:09;6.35;;;3.40;;
33987;SDS011;37428;53.580;-1.666;2023-04-03T18:09:14;7.25;;;3.50;;
33987;SDS011;37428;53.580;-1.666;2023-04-03T18:12:20;6.53;;;3.13;;
33987;SDS011;37428;53.580;-1.666;2023-04-03T18:15:22;4.35;;;3.10;;
33987;SDS011;37428;53.580;-1.666;2023-04-03T18:18:25;6.88;;;3.55;;
33987;SDS011;37428;53.580;-1.666;2023-04-03T18:21:27;6.05;;;2.47;;
33987;SDS011;37428;53.580;-1.666;2023-04-03T18:28:28;6.60;;;3.13;;
33987;SDS011;37428;53.580;-1.666;2023-04-03T18:31:32;11.63;;;4.55;;
33987;SDS011;37428;53.580;-1.666;2023-04-03T18:34:35;7.80;;;3.50;;
33987;SDS011;37428;53.580;-1.666;2023-04-03T18:37:37;4.72;;;3.03;;
33987;SDS011;37428;53.580;-1.666;2023-04-03T18:40:39;9.25;;;4.50;;
33987;SDS011;37428;53.580;-1.666;2023-04-03T18:43:45;5.57;;;4.43;;
33987;SDS011;37428;53.580;-1.666;2023-04-03T18:46:48;6.00;;;3.88;;
33987;SDS011;37428;53.580;-1.666;2023-04-03T18:49:51;18.92;;;9.35;;